Emslake — V2FL4 — position and weather

sailwx.info

Track history (hours):
 
Tides and Currents Weather Stations Pressure Air Temp Water Temp Dewpoint Dewpoint Depression Visibility Wind Speed Wind Dir Waves Ship Positions

Emslake

Last reported at 2014-Sep-23 17:04 UTC. Time now 2014-Sep-24 00:30 UTC.
Position N 54°04' E 004°43'.

Length 100 m; draft 5.9 m.

Type: Cargo ship. MMSI: 305712000.

Date/timePositionNaut miles runAvg speedWind from/ knotsBaromVisibWave heightAir tempDewpointWater temp
2014-Sep-23 17:04N 54°04' E 004°43'4 8.3
2014-Sep-23 16:33N 54°04' E 004°50'8 8.0
2014-Sep-23 15:33N 54°05' E 005°03'8 8.1
2014-Sep-23 14:33N 54°06' E 005°17'8 8.5
2014-Sep-23 13:33N 54°08' E 005°31'8 8.4
2014-Sep-23 12:33N 54°09' E 005°45'9 8.9
2014-Sep-23 11:31N 54°10' E 006°01'35 8.7
2014-Sep-23 07:30N 54°12' E 007°01'8 8.3
2014-Sep-23 06:34N 54°12' E 007°14'8 8.3
2014-Sep-23 05:33N 54°12' E 007°28'8 8.0
2014-Sep-23 04:34N 54°09' E 007°41'8 8.3
2014-Sep-23 03:34N 54°05' E 007°53'8 8.2
2014-Sep-23 02:33N 54°01' E 008°06'10 9.9
2014-Sep-23 01:34N 53°60' E 008°22'1110.8
2014-Sep-23 00:34N 53°56' E 008°40'8 8.1
2014-Sep-22 23:33N 53°50' E 008°50'8 7.7
2014-Sep-22 22:33N 53°52' E 009°03'4 4.2
2014-Sep-22 21:33N 53°54' E 009°09'5 4.8
2014-Sep-22 20:30N 53°57' E 009°15'66 6.0
2014-Sep-22 09:22N 54°35' E 010°48'7 8.3
2014-Sep-22 08:33N 54°36' E 010°60'8 7.6
2014-Sep-22 07:34N 54°35' E 011°13'8 7.6
2014-Sep-22 06:34N 54°32' E 011°25'7 7.4
2014-Sep-22 05:34N 54°29' E 011°36'8 8.1
2014-Sep-22 04:34N 54°27' E 011°49'9 8.9
2014-Sep-22 03:34N 54°27' E 012°05'8 8.4
2014-Sep-22 02:33N 54°33' E 012°13'9 9.4
2014-Sep-22 01:33N 54°40' E 012°24'10 9.6
2014-Sep-22 00:33N 54°46' E 012°38'9 9.1
2014-Sep-21 23:33N 54°49' E 012°52'9 9.0
2014-Sep-21 22:33N 54°52' E 013°07'11 9.1
2014-Sep-21 21:22N 54°56' E 013°25'7 9.2
2014-Sep-21 20:33N 54°59' E 013°37'13 9.4
2014-Sep-21 19:09N 55°03' E 013°59'6 9.7
2014-Sep-21 18:30N 55°07' E 014°08'10 9.8
2014-Sep-21 17:30N 55°14' E 014°19'9 9.8
2014-Sep-21 16:33N 55°22' E 014°29'1010.0
2014-Sep-21 15:32N 55°28' E 014°42'1010.1
2014-Sep-21 14:33N 55°33' E 014°57'1310.0
2014-Sep-21 13:14N 55°40' E 015°17'1710.1
2014-Sep-21 11:33N 55°49' E 015°44'2110.1
2014-Sep-21 09:31N 55°59' E 016°16'2510.1
2014-Sep-21 07:04N 56°15' E 016°49'510.4
2014-Sep-21 06:34N 56°20' E 016°53'1110.4
2014-Sep-21 05:30N 56°30' E 016°60'1010.4
2014-Sep-21 04:33N 56°40' E 017°06'1110.4
2014-Sep-21 03:27N 56°50' E 017°14'1210.4
2014-Sep-21 02:18N 57°01' E 017°22'810.3
2014-Sep-21 01:33N 57°09' E 017°27'1010.2
2014-Sep-21 00:33N 57°18' E 017°35'10 9.9
2014-Sep-20 23:33N 57°27' E 017°42'1010.1
2014-Sep-20 22:33N 57°36' E 017°50'1010.0
2014-Sep-20 21:34N 57°45' E 017°59'1010.1
2014-Sep-20 20:34N 57°53' E 018°09'1010.2
2014-Sep-20 19:34N 58°02' E 018°18'2410.3
2014-Sep-20 17:14N 58°23' E 018°41'  
Track history (hours):
 
Tides and Currents Weather Stations Pressure Air Temp Water Temp Dewpoint Dewpoint Depression Visibility Wind Speed Wind Dir Waves Ship Positions

Emslake

Last reported at 2014-Sep-23 17:04 UTC. Time now 2014-Sep-24 00:30 UTC.
Position N 54°04' E 004°43'.

Length 100 m; draft 5.9 m.

Type: Cargo ship. MMSI: 305712000.

Date/timePositionNaut miles runAvg speedWind from/ knotsBaromVisibWave heightAir tempDewpointWater temp
2014-Sep-23 17:04N 54°04' E 004°43'4 8.3
2014-Sep-23 16:33N 54°04' E 004°50'8 8.0
2014-Sep-23 15:33N 54°05' E 005°03'8 8.1
2014-Sep-23 14:33N 54°06' E 005°17'8 8.5
2014-Sep-23 13:33N 54°08' E 005°31'8 8.4
2014-Sep-23 12:33N 54°09' E 005°45'9 8.9
2014-Sep-23 11:31N 54°10' E 006°01'35 8.7
2014-Sep-23 07:30N 54°12' E 007°01'8 8.3
2014-Sep-23 06:34N 54°12' E 007°14'8 8.3
2014-Sep-23 05:33N 54°12' E 007°28'8 8.0
2014-Sep-23 04:34N 54°09' E 007°41'8 8.3
2014-Sep-23 03:34N 54°05' E 007°53'8 8.2
2014-Sep-23 02:33N 54°01' E 008°06'10 9.9
2014-Sep-23 01:34N 53°60' E 008°22'1110.8
2014-Sep-23 00:34N 53°56' E 008°40'8 8.1
2014-Sep-22 23:33N 53°50' E 008°50'8 7.7
2014-Sep-22 22:33N 53°52' E 009°03'4 4.2
2014-Sep-22 21:33N 53°54' E 009°09'5 4.8
2014-Sep-22 20:30N 53°57' E 009°15'66 6.0
2014-Sep-22 09:22N 54°35' E 010°48'7 8.3
2014-Sep-22 08:33N 54°36' E 010°60'8 7.6
2014-Sep-22 07:34N 54°35' E 011°13'8 7.6
2014-Sep-22 06:34N 54°32' E 011°25'7 7.4
2014-Sep-22 05:34N 54°29' E 011°36'8 8.1
2014-Sep-22 04:34N 54°27' E 011°49'9 8.9
2014-Sep-22 03:34N 54°27' E 012°05'8 8.4
2014-Sep-22 02:33N 54°33' E 012°13'9 9.4
2014-Sep-22 01:33N 54°40' E 012°24'10 9.6
2014-Sep-22 00:33N 54°46' E 012°38'9 9.1
2014-Sep-21 23:33N 54°49' E 012°52'9 9.0
2014-Sep-21 22:33N 54°52' E 013°07'11 9.1
2014-Sep-21 21:22N 54°56' E 013°25'7 9.2
2014-Sep-21 20:33N 54°59' E 013°37'13 9.4
2014-Sep-21 19:09N 55°03' E 013°59'6 9.7
2014-Sep-21 18:30N 55°07' E 014°08'10 9.8
2014-Sep-21 17:30N 55°14' E 014°19'9 9.8
2014-Sep-21 16:33N 55°22' E 014°29'1010.0
2014-Sep-21 15:32N 55°28' E 014°42'1010.1
2014-Sep-21 14:33N 55°33' E 014°57'1310.0
2014-Sep-21 13:14N 55°40' E 015°17'1710.1
2014-Sep-21 11:33N 55°49' E 015°44'2110.1
2014-Sep-21 09:31N 55°59' E 016°16'2510.1
2014-Sep-21 07:04N 56°15' E 016°49'510.4
2014-Sep-21 06:34N 56°20' E 016°53'1110.4
2014-Sep-21 05:30N 56°30' E 016°60'1010.4
2014-Sep-21 04:33N 56°40' E 017°06'1110.4
2014-Sep-21 03:27N 56°50' E 017°14'1210.4
2014-Sep-21 02:18N 57°01' E 017°22'810.3
2014-Sep-21 01:33N 57°09' E 017°27'1010.2
2014-Sep-21 00:33N 57°18' E 017°35'10 9.9
2014-Sep-20 23:33N 57°27' E 017°42'1010.1
2014-Sep-20 22:33N 57°36' E 017°50'1010.0
2014-Sep-20 21:34N 57°45' E 017°59'1010.1
2014-Sep-20 20:34N 57°53' E 018°09'1010.2
2014-Sep-20 19:34N 58°02' E 018°18'2410.3
2014-Sep-20 17:14N 58°23' E 018°41'  

Dump ship's entire track history